sensor_id;sensor_type;location;lat;lon;timestamp;pressure;altitude;pressure_sealevel;temperature;humidity
33075;BME280;76138;50.768;7.212;2024-01-30T00:01:06;101658.81;;;5.56;100.00
33075;BME280;76138;50.768;7.212;2024-01-30T00:03:31;101635.56;;;5.41;100.00
33075;BME280;76138;50.768;7.212;2024-01-30T00:05:57;101640.47;;;5.27;100.00
33075;BME280;76138;50.768;7.212;2024-01-30T00:08:22;101664.25;;;5.37;100.00
33075;BME280;76138;50.768;7.212;2024-01-30T00:10:47;101667.41;;;5.22;100.00
33075;BME280;76138;50.768;7.212;2024-01-30T00:13:12;101647.81;;;5.37;100.00
33075;BME280;76138;50.768;7.212;2024-01-30T00:15:39;101657.91;;;5.36;99.42
33075;BME280;76138;50.768;7.212;2024-01-30T00:18:04;101652.44;;;5.36;99.56
33075;BME280;76138;50.768;7.212;2024-01-30T00:20:29;101641.50;;;5.46;98.88
33075;BME280;76138;50.768;7.212;2024-01-30T00:22:55;101654.50;;;5.63;99.53
33075;BME280;76138;50.768;7.212;2024-01-30T00:25:20;101654.03;;;5.39;100.00
33075;BME280;76138;50.768;7.212;2024-01-30T00:27:45;101645.09;;;5.46;100.00
33075;BME280;76138;50.768;7.212;2024-01-30T00:30:11;101633.78;;;5.20;100.00
33075;BME280;76138;50.768;7.212;2024-01-30T00:32:36;101641.47;;;5.26;100.00
33075;BME280;76138;50.768;7.212;2024-01-30T00:35:02;101651.56;;;5.26;98.59
33075;BME280;76138;50.768;7.212;2024-01-30T00:37:27;101639.81;;;5.05;99.71
33075;BME280;76138;50.768;7.212;2024-01-30T00:39:52;101644.53;;;4.83;100.00
33075;BME280;76138;50.768;7.212;2024-01-30T00:42:18;101642.78;;;5.51;99.78
33075;BME280;76138;50.768;7.212;2024-01-30T00:44:43;101641.06;;;4.91;100.00
33075;BME280;76138;50.768;7.212;2024-01-30T00:47:08;101640.47;;;4.78;100.00
33075;BME280;76138;50.768;7.212;2024-01-30T00:49:33;101641.72;;;4.74;100.00
33075;BME280;76138;50.768;7.212;2024-01-30T00:51:59;101642.06;;;4.90;100.00
33075;BME280;76138;50.768;7.212;2024-01-30T00:54:24;101640.34;;;4.89;100.00
33075;BME280;76138;50.768;7.212;2024-01-30T00:56:49;101630.84;;;4.83;100.00
33075;BME280;76138;50.768;7.212;2024-01-30T00:59:15;101630.03;;;4.62;100.00
33075;BME280;76138;50.768;7.212;2024-01-30T01:01:40;101618.66;;;4.67;100.00
33075;BME280;76138;50.768;7.212;2024-01-30T01:04:05;101636.19;;;4.94;100.00
33075;BME280;76138;50.768;7.212;2024-01-30T01:06:30;101631.31;;;4.58;100.00
33075;BME280;76138;50.768;7.212;2024-01-30T01:08:56;101636.69;;;4.69;100.00
33075;BME280;76138;50.768;7.212;2024-01-30T01:11:21;101630.22;;;4.70;100.00
33075;BME280;76138;50.768;7.212;2024-01-30T01:13:47;101620.50;;;4.26;100.00
33075;BME280;76138;50.768;7.212;2024-01-30T01:16:12;101630.19;;;4.09;100.00
33075;BME280;76138;50.768;7.212;2024-01-30T01:18:38;101607.13;;;3.81;100.00
33075;BME280;76138;50.768;7.212;2024-01-30T01:21:03;101632.94;;;4.09;100.00
33075;BME280;76138;50.768;7.212;2024-01-30T01:23:28;101632.66;;;4.12;100.00
33075;BME280;76138;50.768;7.212;2024-01-30T01:25:54;101632.81;;;4.41;100.00
33075;BME280;76138;50.768;7.212;2024-01-30T01:28:20;101634.84;;;4.39;100.00
33075;BME280;76138;50.768;7.212;2024-01-30T01:30:45;101633.81;;;4.40;100.00
33075;BME280;76138;50.768;7.212;2024-01-30T01:33:11;101634.19;;;4.56;100.00
33075;BME280;76138;50.768;7.212;2024-01-30T01:35:39;101623.63;;;4.21;100.00
33075;BME280;76138;50.768;7.212;2024-01-30T01:38:05;101629.66;;;3.95;100.00
33075;BME280;76138;50.768;7.212;2024-01-30T01:40:30;101617.72;;;3.96;100.00
33075;BME280;76138;50.768;7.212;2024-01-30T01:42:56;101619.91;;;4.22;100.00
33075;BME280;76138;50.768;7.212;2024-01-30T01:45:21;101628.63;;;4.37;100.00
33075;BME280;76138;50.768;7.212;2024-01-30T01:47:55;101633.59;;;4.53;100.00
33075;BME280;76138;50.768;7.212;2024-01-30T01:50:21;101625.16;;;4.75;100.00
33075;BME280;76138;50.768;7.212;2024-01-30T01:52:47;101633.56;;;4.83;100.00
33075;BME280;76138;50.768;7.212;2024-01-30T01:55:13;101612.06;;;4.39;100.00
33075;BME280;76138;50.768;7.212;2024-01-30T01:57:40;101629.75;;;4.65;100.00
33075;BME280;76138;50.768;7.212;2024-01-30T02:00:07;101610.84;;;4.22;100.00
33075;BME280;76138;50.768;7.212;2024-01-30T02:02:36;101606.22;;;4.22;100.00
33075;BME280;76138;50.768;7.212;2024-01-30T02:05:02;101622.69;;;4.32;100.00
33075;BME280;76138;50.768;7.212;2024-01-30T02:07:28;101624.00;;;4.68;100.00
33075;BME280;76138;50.768;7.212;2024-01-30T02:09:53;101626.16;;;4.65;100.00
33075;BME280;76138;50.768;7.212;2024-01-30T02:12:19;101626.16;;;4.65;100.00
33075;BME280;76138;50.768;7.212;2024-01-30T02:14:48;101632.59;;;4.94;100.00
33075;BME280;76138;50.768;7.212;2024-01-30T02:17:15;101616.31;;;4.22;100.00
33075;BME280;76138;50.768;7.212;2024-01-30T02:19:40;101610.84;;;4.01;100.00
33075;BME280;76138;50.768;7.212;2024-01-30T02:22:06;101612.06;;;4.08;100.00
33075;BME280;76138;50.768;7.212;2024-01-30T02:24:32;101609.69;;;4.24;100.00
33075;BME280;76138;50.768;7.212;2024-01-30T02:26:57;101584.16;;;4.14;100.00
33075;BME280;76138;50.768;7.212;2024-01-30T02:31:50;101610.13;;;4.30;100.00
33075;BME280;76138;50.768;7.212;2024-01-30T02:34:16;101613.22;;;4.36;100.00
33075;BME280;76138;50.768;7.212;2024-01-30T02:36:44;101609.13;;;4.61;100.00
33075;BME280;76138;50.768;7.212;2024-01-30T02:39:09;101606.72;;;4.68;100.00
33075;BME280;76138;50.768;7.212;2024-01-30T02:41:35;101594.66;;;4.40;100.00
33075;BME280;76138;50.768;7.212;2024-01-30T02:44:02;101615.22;;;4.74;100.00
33075;BME280;76138;50.768;7.212;2024-01-30T02:46:27;101610.22;;;4.79;100.00
33075;BME280;76138;50.768;7.212;2024-01-30T02:48:52;101603.72;;;4.40;100.00
33075;BME280;76138;50.768;7.212;2024-01-30T02:51:17;101601.34;;;4.56;100.00
33075;BME280;76138;50.768;7.212;2024-01-30T02:53:43;101603.84;;;4.69;100.00
33075;BME280;76138;50.768;7.212;2024-01-30T02:56:08;101591.16;;;4.68;100.00
33075;BME280;76138;50.768;7.212;2024-01-30T02:58:35;101598.28;;;4.90;100.00
33075;BME280;76138;50.768;7.212;2024-01-30T03:01:01;101600.84;;;4.72;100.00
33075;BME280;76138;50.768;7.212;2024-01-30T03:03:26;101601.66;;;4.63;100.00
33075;BME280;76138;50.768;7.212;2024-01-30T03:05:52;101597.53;;;4.38;100.00
33075;BME280;76138;50.768;7.212;2024-01-30T03:08:17;101590.03;;;4.71;100.00
33075;BME280;76138;50.768;7.212;2024-01-30T03:10:42;101593.38;;;4.84;100.00
33075;BME280;76138;50.768;7.212;2024-01-30T03:13:07;101599.28;;;4.89;100.00
33075;BME280;76138;50.768;7.212;2024-01-30T03:15:33;101590.22;;;4.98;100.00
33075;BME280;76138;50.768;7.212;2024-01-30T03:17:58;101601.19;;;5.08;100.00
33075;BME280;76138;50.768;7.212;2024-01-30T03:20:23;101597.44;;;5.09;100.00
33075;BME280;76138;50.768;7.212;2024-01-30T03:22:49;101596.84;;;5.05;99.77
33075;BME280;76138;50.768;7.212;2024-01-30T03:25:14;101597.44;;;5.09;100.00
33075;BME280;76138;50.768;7.212;2024-01-30T03:27:39;101588.03;;;4.92;99.98
33075;BME280;76138;50.768;7.212;2024-01-30T03:30:05;101590.38;;;4.97;100.00
33075;BME280;76138;50.768;7.212;2024-01-30T03:32:31;101586.03;;;4.94;99.61
33075;BME280;76138;50.768;7.212;2024-01-30T03:34:56;101586.28;;;4.72;100.00
33075;BME280;76138;50.768;7.212;2024-01-30T03:37:21;101578.78;;;4.74;100.00
33075;BME280;76138;50.768;7.212;2024-01-30T03:39:47;101588.28;;;4.70;100.00
33075;BME280;76138;50.768;7.212;2024-01-30T03:42:56;101585.03;;;4.85;100.00
33075;BME280;76138;50.768;7.212;2024-01-30T03:45:21;101589.22;;;4.49;100.00
33075;BME280;76138;50.768;7.212;2024-01-30T03:47:46;101576.75;;;4.66;100.00
33075;BME280;76138;50.768;7.212;2024-01-30T03:50:12;101587.34;;;4.50;100.00
33075;BME280;76138;50.768;7.212;2024-01-30T03:52:37;101582.72;;;4.41;100.00
33075;BME280;76138;50.768;7.212;2024-01-30T03:55:02;101590.69;;;4.63;100.00
33075;BME280;76138;50.768;7.212;2024-01-30T03:57:28;101593.91;;;4.68;100.00
33075;BME280;76138;50.768;7.212;2024-01-30T03:59:53;101582.56;;;4.82;100.00
33075;BME280;76138;50.768;7.212;2024-01-30T04:02:18;101586.56;;;4.69;100.00
33075;BME280;76138;50.768;7.212;2024-01-30T04:04:44;101588.31;;;4.79;100.00
33075;BME280;76138;50.768;7.212;2024-01-30T04:07:09;101579.47;;;4.56;100.00
33075;BME280;76138;50.768;7.212;2024-01-30T04:09:34;101583.13;;;4.36;100.00
33075;BME280;76138;50.768;7.212;2024-01-30T04:11:59;101577.91;;;4.03;100.00
